Time;durP1;ratioP1;P1;durP2;ratioP2;P2;SDS_P1;SDS_P2;PMS_P1;PMS_P2;Temp;Humidity;BMP_temperature;BMP_pressure;BME280_temperature;BME280_humidity;BME280_pressure;Samples;Min_cycle;Max_cycle;Signal;HPM_P1;HPM_P2
2023/03/18 00:00:50;;;;;;;9.27;3.97;;;11.20;99.90;;;;;;5013611;28;20066;-73
2023/03/18 00:03:16;;;;;;;11.85;4.22;;;11.20;99.90;;;;;;4998337;28;20022;-72
2023/03/18 00:05:41;;;;;;;16.58;4.32;;;11.20;99.90;;;;;;5009928;28;20030;-72
2023/03/18 00:08:08;;;;;;;10.18;4.70;;;11.30;99.90;;;;;;5006486;28;20026;-73
2023/03/18 00:10:34;;;;;;;10.15;3.72;;;11.20;99.90;;;;;;5005794;28;20037;-72
2023/03/18 00:13:06;;;;;;;14.48;4.80;;;11.30;99.90;;;;;;5004631;28;20030;-72
2023/03/18 00:15:31;;;;;;;9.07;3.70;;;11.20;99.90;;;;;;5005429;28;20068;-71
2023/03/18 00:17:58;;;;;;;11.55;5.47;;;11.20;99.90;;;;;;5005348;28;20490;-71
2023/03/18 00:20:37;;;;;;;9.38;4.00;;;11.20;99.90;;;;;;5000842;28;20382;-72
2023/03/18 00:23:03;;;;;;;7.38;4.40;;;11.20;99.90;;;;;;5000376;28;20439;-72
2023/03/18 00:25:29;;;;;;;9.85;4.22;;;11.20;99.90;;;;;;5006202;28;20079;-72
2023/03/18 00:27:54;;;;;;;9.82;4.53;;;11.20;99.90;;;;;;5005720;28;20030;-74
2023/03/18 00:30:21;;;;;;;9.93;4.30;;;11.20;99.90;;;;;;5003677;28;20490;-71
2023/03/18 00:32:47;;;;;;;11.15;4.10;;;11.20;99.90;;;;;;5004238;28;20065;-73
2023/03/18 00:35:13;;;;;;;9.57;4.07;;;11.10;99.90;;;;;;5005563;28;20030;-73
2023/03/18 00:37:39;;;;;;;10.73;4.15;;;11.10;99.90;;;;;;5004850;28;20092;-72
2023/03/18 00:40:09;;;;;;;7.45;3.78;;;11.20;99.90;;;;;;5010262;28;20064;-71
2023/03/18 00:42:46;;;;;;;10.57;4.82;;;11.10;99.90;;;;;;5003870;28;20498;-72
2023/03/18 00:45:13;;;;;;;11.65;4.43;;;11.10;99.90;;;;;;5005308;28;20147;-73
2023/03/18 00:47:42;;;;;;;11.73;4.78;;;11.10;99.90;;;;;;5004700;28;20104;-71
2023/03/18 00:50:10;;;;;;;13.55;4.68;;;11.10;99.90;;;;;;4998993;28;20514;-73
2023/03/18 00:52:36;;;;;;;10.45;4.18;;;11.10;99.90;;;;;;4974681;28;1063300;-71
2023/03/18 00:55:03;;;;;;;9.43;4.25;;;11.10;99.90;;;;;;5006128;28;20038;-72
2023/03/18 00:57:29;;;;;;;11.48;4.70;;;11.10;99.90;;;;;;5008051;28;20465;-72
2023/03/18 00:59:55;;;;;;;13.88;4.95;;;11.10;99.90;;;;;;5005357;28;20521;-71
2023/03/18 01:02:24;;;;;;;11.02;5.63;;;11.10;99.90;;;;;;5005013;28;20050;-71
2023/03/18 01:04:51;;;;;;;10.38;4.85;;;11.10;99.90;;;;;;5005315;28;20034;-72
2023/03/18 01:07:16;;;;;;;14.35;4.85;;;11.10;99.90;;;;;;5008224;28;20053;-73
2023/03/18 01:09:42;;;;;;;12.63;5.20;;;11.10;99.90;;;;;;5004647;28;20026;-71
2023/03/18 01:12:09;;;;;;;13.95;5.18;;;11.10;99.90;;;;;;5003120;28;20040;-72
2023/03/18 01:14:36;;;;;;;9.80;4.68;;;11.10;99.90;;;;;;5005048;28;20038;-72
2023/03/18 01:17:03;;;;;;;14.57;5.47;;;11.10;99.90;;;;;;5004277;28;20034;-72
2023/03/18 01:19:29;;;;;;;11.18;4.63;;;11.10;99.90;;;;;;5004658;28;20037;-73
2023/03/18 01:21:55;;;;;;;9.75;4.40;;;11.10;99.90;;;;;;5004437;28;20380;-73
2023/03/18 01:24:21;;;;;;;14.77;5.72;;;11.10;99.90;;;;;;5005825;28;20125;-72
2023/03/18 01:26:47;;;;;;;15.85;5.40;;;11.10;99.90;;;;;;5004287;28;20125;-72
2023/03/18 01:29:13;;;;;;;12.02;5.40;;;11.10;99.90;;;;;;5005275;28;20038;-72
2023/03/18 01:31:38;;;;;;;10.57;5.25;;;11.10;99.90;;;;;;5005651;28;20037;-73
2023/03/18 01:34:04;;;;;;;9.45;4.82;;;11.10;99.90;;;;;;5003077;28;20196;-71
2023/03/18 01:36:30;;;;;;;18.35;5.82;;;11.10;99.90;;;;;;5004212;28;20041;-74
2023/03/18 01:38:59;;;;;;;10.13;5.00;;;11.10;99.90;;;;;;5004591;28;20077;-71
2023/03/18 01:41:25;;;;;;;9.88;4.72;;;11.10;99.90;;;;;;5003013;28;20498;-72
2023/03/18 01:43:55;;;;;;;11.50;4.80;;;11.10;99.90;;;;;;5002776;28;20037;-74
2023/03/18 01:46:37;;;;;;;13.93;5.33;;;11.10;99.90;;;;;;5005124;28;20073;-73
2023/03/18 01:49:11;;;;;;;12.02;6.00;;;11.10;99.90;;;;;;5003886;28;20104;-71
2023/03/18 01:51:39;;;;;;;12.38;5.88;;;11.10;99.90;;;;;;5001028;28;20495;-75
2023/03/18 01:54:06;;;;;;;11.63;5.30;;;11.10;99.90;;;;;;5002033;28;20422;-73
2023/03/18 01:56:35;;;;;;;14.68;6.25;;;11.20;99.90;;;;;;5005765;28;20145;-71
2023/03/18 01:59:02;;;;;;;15.52;5.57;;;11.20;99.90;;;;;;5004571;28;20033;-71
2023/03/18 02:01:48;;;;;;;14.05;5.63;;;11.20;99.90;;;;;;5004811;28;20033;-71
2023/03/18 02:04:15;;;;;;;16.10;5.78;;;11.20;99.90;;;;;;5003023;28;20030;-73
2023/03/18 02:06:41;;;;;;;13.38;5.57;;;11.20;99.90;;;;;;5005857;28;20089;-72
2023/03/18 02:09:07;;;;;;;11.00;5.45;;;11.20;99.90;;;;;;5004623;28;20034;-71
2023/03/18 02:11:37;;;;;;;16.73;5.28;;;11.20;99.90;;;;;;5002636;28;20037;-71
2023/03/18 02:14:04;;;;;;;13.07;5.18;;;11.30;99.90;;;;;;5003511;28;20034;-72
2023/03/18 02:16:45;;;;;;;13.85;5.90;;;11.30;99.90;;;;;;5003473;28;20037;-72
2023/03/18 02:19:36;;;;;;;13.32;5.43;;;11.20;99.90;;;;;;5003649;28;20133;-73
2023/03/18 02:22:23;;;;;;;11.43;5.75;;;11.30;99.90;;;;;;5016839;28;20053;-72
2023/03/18 02:25:02;;;;;;;14.80;5.50;;;11.20;99.90;;;;;;5004166;28;20069;-72
2023/03/18 02:27:32;;;;;;;12.93;6.43;;;11.20;99.90;;;;;;5005106;28;20062;-73
2023/03/18 02:30:01;;;;;;;12.50;6.10;;;11.20;99.90;;;;;;5002939;28;20087;-72
2023/03/18 02:32:30;;;;;;;11.83;6.03;;;11.20;99.90;;;;;;5004261;28;20029;-72
2023/03/18 02:35:00;;;;;;;16.60;6.82;;;11.20;99.90;;;;;;5002907;28;20034;-72
2023/03/18 02:37:25;;;;;;;12.38;6.18;;;11.20;99.90;;;;;;5004683;28;20037;-75
2023/03/18 02:39:51;;;;;;;9.98;5.32;;;11.20;99.90;;;;;;5002836;28;20048;-73
2023/03/18 02:42:28;;;;;;;15.50;5.57;;;11.20;99.90;;;;;;5002548;28;20472;-71
2023/03/18 02:44:53;;;;;;;13.25;6.10;;;11.20;99.90;;;;;;5008953;28;20060;-71
2023/03/18 02:47:23;;;;;;;11.35;5.72;;;11.20;99.90;;;;;;5008406;28;20072;-71
2023/03/18 02:49:49;;;;;;;12.00;5.97;;;11.20;99.90;;;;;;5007744;28;20041;-72
2023/03/18 02:52:14;;;;;;;12.25;6.15;;;11.20;99.90;;;;;;5002398;28;20042;-72
2023/03/18 02:54:40;;;;;;;12.00;5.78;;;11.20;99.90;;;;;;5015942;28;20654;-72
2023/03/18 02:57:06;;;;;;;11.38;6.57;;;11.20;99.90;;;;;;5005825;28;20029;-72
2023/03/18 02:59:31;;;;;;;16.77;6.25;;;11.20;99.90;;;;;;5004463;28;20048;-73
2023/03/18 03:01:57;;;;;;;11.20;6.30;;;11.20;99.90;;;;;;5000652;28;20073;-72
2023/03/18 03:04:26;;;;;;;10.02;5.40;;;11.20;99.90;;;;;;5002514;28;20062;-72
2023/03/18 03:06:53;;;;;;;18.08;6.72;;;11.20;99.90;;;;;;5006604;28;20053;-72
2023/03/18 03:09:20;;;;;;;12.82;6.28;;;11.20;99.90;;;;;;5003661;28;20030;-71
2023/03/18 03:11:47;;;;;;;12.27;6.07;;;11.20;99.90;;;;;;5002689;28;20038;-72
2023/03/18 03:14:13;;;;;;;11.88;5.63;;;11.20;99.90;;;;;;5003667;28;20137;-73
2023/03/18 03:16:39;;;;;;;15.48;5.70;;;11.20;99.90;;;;;;5003999;28;20034;-72
2023/03/18 03:19:05;;;;;;;14.30;6.18;;;11.10;99.90;;;;;;5002761;28;20060;-72
2023/03/18 03:21:32;;;;;;;16.27;6.05;;;11.20;99.90;;;;;;5004118;28;20661;-74
2023/03/18 03:23:58;;;;;;;10.45;6.03;;;11.10;99.90;;;;;;5002493;28;20041;-72
2023/03/18 03:26:24;;;;;;;18.42;5.93;;;11.10;99.90;;;;;;5000439;28;20037;-72
2023/03/18 03:28:50;;;;;;;14.40;5.63;;;11.10;99.90;;;;;;5000626;28;20026;-71
2023/03/18 03:31:16;;;;;;;15.38;5.80;;;11.20;99.90;;;;;;5006109;28;20533;-72
2023/03/18 03:33:42;;;;;;;15.23;6.47;;;11.20;99.90;;;;;;5014832;28;20022;-71
2023/03/18 03:36:14;;;;;;;14.02;6.15;;;11.10;99.90;;;;;;5006916;28;20045;-71
2023/03/18 03:38:40;;;;;;;9.68;5.40;;;11.20;99.90;;;;;;5002817;28;20426;-72
2023/03/18 03:41:09;;;;;;;13.75;6.13;;;11.20;99.90;;;;;;5002649;28;20483;-72
2023/03/18 03:43:38;;;;;;;14.73;5.30;;;11.20;99.90;;;;;;5004419;28;20034;-72
2023/03/18 03:46:04;;;;;;;12.55;5.30;;;11.20;99.90;;;;;;5003246;28;20479;-71
2023/03/18 03:48:30;;;;;;;12.43;6.90;;;11.30;99.90;;;;;;5006881;28;20040;-72
2023/03/18 03:50:56;;;;;;;11.73;5.18;;;11.30;99.90;;;;;;5004599;28;20120;-73
2023/03/18 03:53:23;;;;;;;11.77;5.28;;;11.30;99.90;;;;;;5007578;28;20506;-72
2023/03/18 03:55:49;;;;;;;11.60;4.82;;;11.30;99.90;;;;;;5007534;28;20690;-72
2023/03/18 03:58:17;;;;;;;12.35;5.18;;;11.30;99.90;;;;;;5004435;28;20084;-73
2023/03/18 04:00:43;;;;;;;17.63;6.38;;;11.30;99.90;;;;;;4999476;28;20058;-71
2023/03/18 04:03:09;;;;;;;10.40;4.88;;;11.30;99.90;;;;;;5001177;28;20065;-72
2023/03/18 04:05:35;;;;;;;15.23;5.95;;;11.40;99.90;;;;;;5004714;28;20114;-71
2023/03/18 04:08:00;;;;;;;17.35;5.80;;;11.30;99.90;;;;;;5003991;28;20116;-72
2023/03/18 04:10:27;;;;;;;13.07;5.13;;;11.30;99.90;;;;;;5006515;28;20044;-73
2023/03/18 04:12:53;;;;;;;13.85;5.60;;;11.30;99.90;;;;;;5005704;28;20656;-72
2023/03/18 04:15:20;;;;;;;11.00;6.65;;;11.30;99.90;;;;;;5006752;28;20271;-71
2023/03/18 04:17:48;;;;;;;12.35;5.10;;;11.30;99.90;;;;;;5005196;28;20506;-72
2023/03/18 04:20:14;;;;;;;11.00;5.50;;;11.30;99.90;;;;;;5004329;28;20540;-73
2023/03/18 04:22:40;;;;;;;12.25;5.68;;;11.30;99.90;;;;;;5007258;28;20038;-73
2023/03/18 04:25:09;;;;;;;12.35;5.82;;;11.20;99.90;;;;;;5006158;28;20041;-71
2023/03/18 04:27:36;;;;;;;16.83;6.00;;;11.20;99.90;;;;;;5007233;28;20034;-72
2023/03/18 04:30:02;;;;;;;11.20;5.18;;;11.10;99.90;;;;;;5003298;28;20041;-72
2023/03/18 04:32:28;;;;;;;14.80;5.75;;;11.00;99.90;;;;;;5005147;28;20667;-72
2023/03/18 04:34:53;;;;;;;16.77;6.85;;;11.00;99.90;;;;;;5004981;28;20026;-72
2023/03/18 04:37:22;;;;;;;14.25;7.28;;;10.90;99.90;;;;;;5005247;28;20125;-71
2023/03/18 04:39:49;;;;;;;14.98;6.35;;;10.90;99.90;;;;;;5006086;28;20080;-72
2023/03/18 04:42:15;;;;;;;12.68;6.15;;;10.90;99.90;;;;;;5006172;28;20092;-73
2023/03/18 04:44:40;;;;;;;12.02;6.07;;;10.80;99.90;;;;;;5005355;28;20040;-73
2023/03/18 04:47:06;;;;;;;13.90;6.30;;;10.80;99.90;;;;;;5002286;28;20034;-72
2023/03/18 04:49:33;;;;;;;16.92;6.53;;;10.80;99.90;;;;;;5004754;28;20034;-72
2023/03/18 04:51:59;;;;;;;13.05;5.68;;;10.70;99.90;;;;;;5001125;28;20075;-72
2023/03/18 04:54:25;;;;;;;15.13;6.70;;;10.70;99.90;;;;;;5006254;28;20057;-73
2023/03/18 04:56:53;;;;;;;11.00;6.07;;;10.70;99.90;;;;;;5002996;28;20042;-73
2023/03/18 04:59:19;;;;;;;12.27;6.07;;;10.70;99.90;;;;;;5002144;28;20453;-71
2023/03/18 05:01:44;;;;;;;14.63;6.20;;;10.70;99.90;;;;;;5004106;28;20033;-72
2023/03/18 05:04:10;;;;;;;21.27;6.63;;;10.70;99.90;;;;;;5005749;28;20042;-71
2023/03/18 05:06:36;;;;;;;22.15;7.22;;;10.70;99.90;;;;;;5007051;28;20080;-74
2023/03/18 05:09:04;;;;;;;15.27;5.78;;;10.70;99.90;;;;;;5005301;28;20495;-74
2023/03/18 05:11:29;;;;;;;16.75;6.63;;;10.70;99.90;;;;;;5003493;28;20030;-72
2023/03/18 05:13:55;;;;;;;19.58;6.47;;;10.70;99.90;;;;;;5005683;28;20042;-71
2023/03/18 05:16:22;;;;;;;14.07;6.10;;;10.70;99.90;;;;;;5004588;28;20145;-71
2023/03/18 05:18:48;;;;;;;12.65;5.82;;;10.70;99.90;;;;;;5006286;28;20189;-71
2023/03/18 05:21:14;;;;;;;14.35;6.28;;;10.70;99.90;;;;;;5005360;28;20029;-70
2023/03/18 05:23:40;;;;;;;18.27;7.18;;;10.80;99.90;;;;;;5006605;28;20034;-71
2023/03/18 05:26:10;;;;;;;17.85;6.93;;;10.70;99.90;;;;;;5003958;28;20034;-74
2023/03/18 05:28:36;;;;;;;11.35;6.70;;;10.70;99.90;;;;;;5002932;28;20030;-72
2023/03/18 05:31:02;;;;;;;18.35;6.53;;;10.70;99.90;;;;;;5000373;28;20427;-71
2023/03/18 05:33:28;;;;;;;17.70;6.57;;;10.70;99.90;;;;;;5004369;28;20030;-72
2023/03/18 05:35:54;;;;;;;18.13;7.20;;;10.70;99.90;;;;;;5000872;28;20061;-72
2023/03/18 05:38:19;;;;;;;17.63;6.60;;;10.70;99.90;;;;;;5002703;28;20814;-73
2023/03/18 05:40:45;;;;;;;14.20;6.38;;;10.70;99.90;;;;;;5003784;28;20037;-75
2023/03/18 05:43:11;;;;;;;14.45;7.30;;;10.60;99.90;;;;;;5003780;28;20045;-74
2023/03/18 05:45:37;;;;;;;12.05;5.85;;;10.60;99.90;;;;;;5011670;28;20030;-71
2023/03/18 05:48:03;;;;;;;13.20;6.63;;;10.60;99.90;;;;;;5006293;28;20133;-72
2023/03/18 05:50:30;;;;;;;14.27;6.15;;;10.60;99.90;;;;;;5003092;28;20173;-71
2023/03/18 05:52:56;;;;;;;11.55;6.03;;;10.50;99.90;;;;;;5003677;28;20045;-72
2023/03/18 05:55:22;;;;;;;12.75;7.15;;;10.50;99.90;;;;;;5005099;28;20414;-71
2023/03/18 05:57:48;;;;;;;16.77;7.13;;;10.50;99.90;;;;;;5008179;28;20545;-71
2023/03/18 06:00:17;;;;;;;15.00;6.47;;;10.50;99.90;;;;;;5004399;28;20037;-72
2023/03/18 06:02:43;;;;;;;12.45;6.13;;;10.50;99.90;;;;;;5005159;28;20042;-73
2023/03/18 06:05:09;;;;;;;12.57;6.05;;;10.50;99.90;;;;;;5003001;28;20025;-71
2023/03/18 06:07:35;;;;;;;11.82;6.25;;;10.50;99.90;;;;;;5005317;28;20517;-73
2023/03/18 06:10:01;;;;;;;11.70;6.85;;;10.50;99.90;;;;;;5002128;28;20395;-73
2023/03/18 06:12:27;;;;;;;10.38;5.97;;;10.50;99.90;;;;;;5003593;28;20037;-71
2023/03/18 06:14:53;;;;;;;17.65;6.65;;;10.50;99.90;;;;;;5003752;28;20120;-72
2023/03/18 06:17:20;;;;;;;13.77;5.82;;;10.40;99.90;;;;;;5001115;28;20038;-72
2023/03/18 06:19:47;;;;;;;16.35;6.40;;;10.40;99.90;;;;;;4997819;28;20038;-74
2023/03/18 06:22:15;;;;;;;9.75;5.70;;;10.30;99.90;;;;;;5002674;28;20402;-72
2023/03/18 06:24:44;;;;;;;13.85;6.10;;;10.30;99.90;;;;;;4999985;28;20056;-72
2023/03/18 06:27:15;;;;;;;15.05;6.28;;;10.30;99.90;;;;;;4999263;28;20394;-71
2023/03/18 06:29:41;;;;;;;12.50;6.05;;;10.20;99.90;;;;;;5003588;28;20108;-72
2023/03/18 06:32:07;;;;;;;18.85;6.63;;;10.20;99.90;;;;;;5003229;28;20073;-72
2023/03/18 06:34:34;;;;;;;14.07;6.70;;;10.30;99.90;;;;;;5006648;28;20092;-72
2023/03/18 06:37:03;;;;;;;14.70;6.93;;;10.30;99.90;;;;;;5009073;28;20034;-73
2023/03/18 06:39:29;;;;;;;14.88;6.85;;;10.30;99.90;;;;;;5003916;28;20109;-73
2023/03/18 06:41:54;;;;;;;18.92;6.85;;;10.30;99.90;;;;;;5003474;28;20133;-72
2023/03/18 06:44:21;;;;;;;13.65;6.15;;;10.40;99.90;;;;;;4999290;28;20034;-71
2023/03/18 06:46:47;;;;;;;14.38;7.18;;;10.40;99.90;;;;;;4999037;28;20088;-72
2023/03/18 06:49:13;;;;;;;15.45;6.70;;;10.40;99.90;;;;;;5005953;28;20038;-71
2023/03/18 06:51:39;;;;;;;12.50;6.25;;;10.40;99.90;;;;;;4996750;28;20046;-72
2023/03/18 06:54:06;;;;;;;11.00;5.90;;;10.40;99.90;;;;;;4997353;28;20042;-72
2023/03/18 06:56:37;;;;;;;18.40;6.07;;;10.40;99.90;;;;;;5004260;28;20505;-73
2023/03/18 06:59:04;;;;;;;13.43;6.22;;;10.40;99.90;;;;;;5011834;28;20056;-73
2023/03/18 07:01:31;;;;;;;13.25;5.53;;;10.40;99.90;;;;;;5010370;28;20033;-73
2023/03/18 07:03:59;;;;;;;10.98;5.65;;;10.40;99.90;;;;;;4998592;28;20116;-72
2023/03/18 07:06:25;;;;;;;15.57;6.00;;;10.50;99.90;;;;;;5001994;28;20044;-73
2023/03/18 07:08:51;;;;;;;11.48;5.78;;;10.60;99.90;;;;;;5002233;28;20078;-74
2023/03/18 07:11:17;;;;;;;10.13;5.53;;;10.70;99.90;;;;;;4998157;28;20085;-74
2023/03/18 07:13:43;;;;;;;14.85;6.40;;;10.80;99.90;;;;;;5008113;28;20038;-74
2023/03/18 07:16:09;;;;;;;10.52;5.75;;;10.90;99.90;;;;;;4999847;28;20035;-72
2023/03/18 07:18:36;;;;;;;11.55;5.95;;;11.00;99.90;;;;;;4996091;28;20037;-72
2023/03/18 07:21:02;;;;;;;14.52;6.32;;;11.20;99.90;;;;;;5001391;28;20033;-74
2023/03/18 07:23:28;;;;;;;12.13;6.40;;;11.50;99.90;;;;;;5011760;28;20076;-75
2023/03/18 07:25:53;;;;;;;9.68;5.05;;;11.60;99.90;;;;;;5001176;28;20042;-74
2023/03/18 07:28:19;;;;;;;14.30;5.13;;;11.70;99.90;;;;;;4997265;28;20558;-71
2023/03/18 07:30:45;;;;;;;9.95;5.38;;;11.80;99.90;;;;;;5001603;28;20033;-74
2023/03/18 07:33:11;;;;;;;10.82;5.15;;;11.90;99.90;;;;;;5001455;28;20152;-75
2023/03/18 07:35:39;;;;;;;13.20;5.65;;;12.00;99.90;;;;;;5006577;28;20033;-74
2023/03/18 07:38:09;;;;;;;14.02;5.90;;;12.00;99.90;;;;;;5004751;28;20794;-74
2023/03/18 07:40:35;;;;;;;10.70;4.85;;;12.10;99.90;;;;;;5002036;28;20053;-74
2023/03/18 07:43:01;;;;;;;14.05;5.35;;;12.20;99.90;;;;;;5004801;28;20409;-73
2023/03/18 07:45:28;;;;;;;16.10;5.70;;;12.30;99.90;;;;;;5010545;28;20034;-75
2023/03/18 07:47:53;;;;;;;12.38;5.72;;;12.40;99.90;;;;;;4997889;28;20045;-73
2023/03/18 07:50:19;;;;;;;8.85;4.50;;;12.60;99.90;;;;;;5000775;28;20359;-73
2023/03/18 07:52:44;;;;;;;12.10;6.07;;;12.70;99.90;;;;;;5002882;28;20053;-74
2023/03/18 07:55:11;;;;;;;13.85;5.53;;;12.80;99.90;;;;;;5003082;28;20041;-74
2023/03/18 07:57:39;;;;;;;10.32;5.50;;;12.90;99.90;;;;;;5003869;28;20038;-72
2023/03/18 08:00:07;;;;;;;11.30;5.35;;;13.00;99.90;;;;;;5003519;28;20030;-72
2023/03/18 08:02:34;;;;;;;10.43;4.90;;;13.00;99.90;;;;;;5001061;28;20041;-73
2023/03/18 08:05:01;;;;;;;8.63;4.82;;;13.10;99.90;;;;;;5000869;28;20145;-73
2023/03/18 08:07:27;;;;;;;16.90;5.00;;;13.20;99.90;;;;;;5008698;28;20068;-73
2023/03/18 08:09:55;;;;;;;10.43;5.47;;;13.30;99.90;;;;;;5000730;28;20042;-74
2023/03/18 08:12:22;;;;;;;12.20;5.10;;;13.40;99.90;;;;;;5000579;28;20117;-74
2023/03/18 08:14:48;;;;;;;7.72;4.07;;;13.50;99.90;;;;;;5003724;28;20037;-72
2023/03/18 08:17:14;;;;;;;11.30;4.63;;;13.60;99.90;;;;;;5004756;28;20038;-74
2023/03/18 08:19:40;;;;;;;11.13;5.13;;;13.60;99.90;;;;;;5004422;28;20095;-73
2023/03/18 08:22:07;;;;;;;10.02;4.75;;;13.70;99.90;;;;;;4994170;28;20043;-74
2023/03/18 08:24:33;;;;;;;12.40;5.25;;;13.70;99.90;;;;;;4999831;28;20080;-73
2023/03/18 08:26:58;;;;;;;10.55;5.03;;;13.70;99.90;;;;;;5000677;28;20518;-74
2023/03/18 08:29:24;;;;;;;24.55;5.72;;;13.70;99.90;;;;;;5002431;28;20046;-75
2023/03/18 08:31:50;;;;;;;18.55;6.95;;;13.80;99.90;;;;;;5000492;28;20037;-74
2023/03/18 08:34:15;;;;;;;12.65;4.75;;;13.80;99.90;;;;;;5002162;28;20490;-71
2023/03/18 08:36:41;;;;;;;10.13;4.55;;;13.90;99.90;;;;;;5003130;28;20049;-73
2023/03/18 08:39:08;;;;;;;8.35;3.83;;;13.90;99.90;;;;;;5000164;28;20487;-73
2023/03/18 08:41:34;;;;;;;9.57;4.63;;;13.90;99.90;;;;;;5002042;28;20026;-75
2023/03/18 08:44:01;;;;;;;9.38;4.32;;;13.90;99.90;;;;;;5001597;28;20433;-73
2023/03/18 08:46:27;;;;;;;12.38;4.72;;;13.90;99.90;;;;;;5003905;28;20117;-73
2023/03/18 08:48:53;;;;;;;10.95;5.03;;;14.00;99.90;;;;;;4996048;28;20037;-74
2023/03/18 08:51:19;;;;;;;9.93;5.07;;;14.00;99.90;;;;;;4998677;28;20033;-73
2023/03/18 08:53:44;;;;;;;9.90;4.28;;;14.00;99.90;;;;;;4995800;28;20045;-73
2023/03/18 08:56:11;;;;;;;13.77;4.90;;;14.00;99.90;;;;;;4997799;28;20026;-74
2023/03/18 08:58:37;;;;;;;8.68;4.70;;;14.00;99.90;;;;;;4997378;28;20487;-74
2023/03/18 09:01:04;;;;;;;9.50;4.50;;;14.10;99.90;;;;;;5001909;28;20037;-74
2023/03/18 09:03:30;;;;;;;10.02;4.40;;;14.20;99.90;;;;;;5000544;28;20041;-73
2023/03/18 09:05:56;;;;;;;7.57;3.90;;;14.20;99.90;;;;;;5005970;28;20044;-74
2023/03/18 09:08:22;;;;;;;9.68;4.28;;;14.20;99.90;;;;;;4997279;28;20038;-73
2023/03/18 09:10:52;;;;;;;10.00;4.30;;;14.30;99.90;;;;;;4992804;28;20046;-73
2023/03/18 09:13:18;;;;;;;10.63;4.65;;;14.40;99.90;;;;;;5000388;28;20034;-71
2023/03/18 09:15:43;;;;;;;9.23;4.55;;;14.50;99.90;;;;;;4997532;28;20061;-74
2023/03/18 09:18:09;;;;;;;15.05;4.93;;;14.60;99.90;;;;;;4994733;28;20066;-73
2023/03/18 09:20:35;;;;;;;10.50;4.60;;;14.70;99.90;;;;;;5003458;28;20589;-76
2023/03/18 09:23:01;;;;;;;12.13;4.35;;;14.80;99.90;;;;;;4999875;28;20036;-74
2023/03/18 09:25:27;;;;;;;9.75;4.35;;;14.90;99.90;;;;;;5002995;28;20951;-76
2023/03/18 09:27:52;;;;;;;9.73;4.47;;;14.80;99.90;;;;;;5000442;28;20048;-74
2023/03/18 09:30:19;;;;;;;11.10;5.05;;;14.70;99.90;;;;;;4998694;28;20525;-73
2023/03/18 09:32:45;;;;;;;14.07;5.03;;;14.70;99.90;;;;;;5001422;28;20130;-75
2023/03/18 09:35:11;;;;;;;7.95;4.57;;;14.80;99.90;;;;;;4996756;28;20119;-74
2023/03/18 09:37:37;;;;;;;7.15;3.95;;;15.10;99.90;;;;;;5000300;28;20568;-75
2023/03/18 09:40:06;;;;;;;7.90;4.75;;;15.30;99.90;;;;;;4998359;28;20063;-74
2023/03/18 09:42:43;;;;;;;10.25;4.30;;;15.40;99.90;;;;;;4996408;28;20037;-73
2023/03/18 09:45:59;;;;;;;9.95;4.80;;;15.70;99.90;;;;;;5010034;28;20035;-74
2023/03/18 09:48:36;;;;;;;12.45;6.18;;;15.80;99.90;;;;;;4969912;28;20046;-73
2023/03/18 09:51:21;;;;;;;10.95;5.30;;;15.80;99.90;;;;;;5007583;28;20124;-74
2023/03/18 09:53:49;;;;;;;8.80;4.57;;;15.90;99.90;;;;;;5013402;28;20116;-74
2023/03/18 09:56:22;;;;;;;13.10;4.60;;;16.00;99.90;;;;;;5004395;28;20398;-75
2023/03/18 09:59:18;;;;;;;9.13;4.72;;;16.00;99.90;;;;;;5002517;28;20084;-73
2023/03/18 10:01:48;;;;;;;5.70;3.65;;;16.00;99.90;;;;;;5001901;28;20045;-73
2023/03/18 10:04:42;;;;;;;7.38;3.28;;;16.00;99.90;;;;;;4998325;28;20040;-73
2023/03/18 10:07:16;;;;;;;11.05;3.40;;;16.00;99.90;;;;;;5016865;28;20451;-76
2023/03/18 10:09:45;;;;;;;6.10;3.60;;;16.00;99.90;;;;;;4999345;28;20834;-74
2023/03/18 10:12:34;;;;;;;7.53;3.80;;;16.10;99.90;;;;;;4997367;28;20042;-75
2023/03/18 10:15:15;;;;;;;9.40;3.05;;;16.10;99.90;;;;;;4997450;28;20049;-73
2023/03/18 10:17:53;;;;;;;8.00;3.45;;;16.20;99.90;;;;;;5016552;28;20044;-72
2023/03/18 10:20:34;;;;;;;13.38;3.55;;;16.20;99.90;;;;;;4995962;28;20030;-73
2023/03/18 10:23:11;;;;;;;6.53;3.28;;;16.20;99.90;;;;;;4998889;28;20046;-74
2023/03/18 10:25:50;;;;;;;7.45;3.55;;;16.20;99.90;;;;;;5000118;28;20041;-74
2023/03/18 10:28:41;;;;;;;5.70;2.80;;;16.20;99.90;;;;;;4996007;28;20037;-74
2023/03/18 10:31:25;;;;;;;7.72;2.63;;;16.40;99.90;;;;;;4999512;28;20030;-73
2023/03/18 10:34:10;;;;;;;6.15;2.97;;;16.60;99.90;;;;;;4998871;28;20463;-71
2023/03/18 10:36:58;;;;;;;7.25;3.60;;;16.80;99.90;;;;;;4999958;28;20037;-73
2023/03/18 10:39:25;;;;;;;9.60;3.88;;;16.80;99.90;;;;;;4999109;28;20506;-74
2023/03/18 10:41:53;;;;;;;8.45;3.45;;;16.80;99.90;;;;;;5000100;28;20038;-73
2023/03/18 10:44:33;;;;;;;9.07;2.70;;;16.80;99.90;;;;;;4998411;28;20087;-73
2023/03/18 10:47:06;;;;;;;6.95;2.60;;;16.80;99.90;;;;;;5015258;28;20049;-71
2023/03/18 10:49:37;;;;;;;4.82;2.28;;;16.70;99.90;;;;;;5014099;28;20034;-73
2023/03/18 10:52:17;;;;;;;8.35;3.28;;;16.60;99.90;;;;;;4998353;28;20048;-72
2023/03/18 10:54:49;;;;;;;7.55;3.70;;;16.60;99.90;;;;;;4999652;28;20768;-74
2023/03/18 10:57:16;;;;;;;6.03;2.75;;;16.60;99.90;;;;;;5004262;28;20048;-74
2023/03/18 10:59:46;;;;;;;7.45;2.80;;;16.50;99.90;;;;;;5002183;28;20034;-72
2023/03/18 11:02:15;;;;;;;5.90;3.30;;;16.50;99.90;;;;;;5001250;28;20038;-73
2023/03/18 11:04:50;;;;;;;7.75;4.07;;;16.60;99.90;;;;;;5005279;28;20084;-74
2023/03/18 11:07:25;;;;;;;8.60;3.15;;;16.40;99.90;;;;;;5005934;28;20037;-74
2023/03/18 11:09:51;;;;;;;6.22;3.00;;;16.30;99.90;;;;;;5002256;28;20502;-74
2023/03/18 11:12:27;;;;;;;6.50;2.97;;;16.20;99.90;;;;;;5002532;28;20026;-75
2023/03/18 11:14:55;;;;;;;9.27;3.53;;;16.00;99.90;;;;;;5002411;28;20068;-74
2023/03/18 11:17:29;;;;;;;6.75;2.95;;;15.90;99.90;;;;;;5003303;28;20490;-75
2023/03/18 11:20:10;;;;;;;10.55;3.05;;;15.80;99.90;;;;;;4998910;28;20053;-73
2023/03/18 11:22:38;;;;;;;7.28;3.08;;;15.60;99.90;;;;;;5015351;28;20073;-73
2023/03/18 11:25:22;;;;;;;7.43;3.25;;;15.60;99.90;;;;;;5001059;28;20053;-75
2023/03/18 11:28:02;;;;;;;7.47;3.03;;;15.70;99.90;;;;;;4999775;28;20053;-75
2023/03/18 11:30:34;;;;;;;7.20;3.28;;;15.70;99.90;;;;;;5002102;28;20434;-74
2023/03/18 11:33:09;;;;;;;9.57;3.40;;;15.70;99.90;;;;;;5002505;28;20029;-74
2023/03/18 11:35:43;;;;;;;10.43;3.10;;;15.80;99.90;;;;;;4997855;28;20033;-74
2023/03/18 11:38:26;;;;;;;4.93;2.40;;;15.90;99.90;;;;;;4997018;28;20383;-73
2023/03/18 11:40:52;;;;;;;4.53;2.55;;;15.80;99.90;;;;;;4997318;28;20034;-72
2023/03/18 11:43:22;;;;;;;5.60;2.70;;;15.70;99.90;;;;;;5017202;28;20704;-70
2023/03/18 11:45:56;;;;;;;5.10;2.55;;;15.60;99.90;;;;;;5001829;28;20894;-73
2023/03/18 11:48:31;;;;;;;4.63;2.10;;;15.70;99.90;;;;;;4998536;28;20053;-72
2023/03/18 11:51:22;;;;;;;5.38;2.60;;;15.80;99.90;;;;;;4998369;28;20042;-73
2023/03/18 11:54:26;;;;;;;5.55;2.50;;;15.90;99.90;;;;;;4994660;28;20042;-73
2023/03/18 11:57:10;;;;;;;8.23;2.75;;;16.10;99.90;;;;;;4991374;28;20878;-75
2023/03/18 12:00:16;;;;;;;4.70;2.03;;;16.20;99.90;;;;;;5019572;28;20486;-73
2023/03/18 12:03:15;;;;;;;5.75;1.80;;;16.30;99.90;;;;;;4993432;28;20046;-72
2023/03/18 12:06:07;;;;;;;6.85;2.15;;;16.30;99.90;;;;;;4997472;28;20047;-72
2023/03/18 12:09:05;;;;;;;5.00;2.50;;;16.30;99.90;;;;;;5001490;28;20694;-72
2023/03/18 12:11:37;;;;;;;7.55;2.58;;;16.30;99.90;;;;;;5001445;28;20494;-72
2023/03/18 12:14:14;;;;;;;7.32;2.38;;;16.30;99.90;;;;;;5004368;28;20049;-73
2023/03/18 12:16:47;;;;;;;6.82;2.78;;;16.30;99.90;;;;;;5001121;28;20064;-73
2023/03/18 12:19:35;;;;;;;5.60;2.00;;;16.20;99.90;;;;;;5002492;28;20046;-73
2023/03/18 12:22:06;;;;;;;4.80;1.88;;;16.20;99.90;;;;;;5005262;28;20405;-73
2023/03/18 12:24:57;;;;;;;6.07;1.70;;;16.10;99.90;;;;;;5001525;28;20084;-73
2023/03/18 12:27:39;;;;;;;7.18;2.70;;;15.90;99.90;;;;;;5004168;28;20030;-73
2023/03/18 12:30:34;;;;;;;5.95;2.40;;;15.70;99.90;;;;;;5019754;28;20033;-72
2023/03/18 12:33:00;;;;;;;4.72;1.98;;;15.30;99.90;;;;;;4998566;28;20057;-73
2023/03/18 12:36:09;;;;;;;7.38;3.00;;;15.10;99.90;;;;;;5001159;28;20062;-71
2023/03/18 12:38:53;;;;;;;4.82;2.05;;;14.90;99.90;;;;;;4999530;28;20034;-74
2023/03/18 12:41:51;;;;;;;4.18;2.25;;;14.80;99.90;;;;;;5002541;28;20487;-74
2023/03/18 12:44:41;;;;;;;3.25;1.67;;;14.80;99.90;;;;;;5002208;28;20409;-71
2023/03/18 12:47:24;;;;;;;5.50;2.10;;;14.80;99.90;;;;;;5005255;28;20036;-72
2023/03/18 12:50:03;;;;;;;6.72;2.45;;;14.90;99.90;;;;;;5002566;28;20030;-73
2023/03/18 12:52:37;;;;;;;10.27;2.13;;;14.90;99.90;;;;;;5003343;28;20042;-73
2023/03/18 12:55:21;;;;;;;4.53;2.05;;;15.00;99.90;;;;;;5004284;28;20034;-73